sensor_id;sensor_type;location;lat;lon;timestamp;pressure;altitude;pressure_sealevel;temperature;humidity
58622;BME280;44389;51.578;5.456;2022-12-07T00:01:33;101739.31;;;1.88;100.00
58622;BME280;44389;51.578;5.456;2022-12-07T00:04:00;101739.47;;;1.79;100.00
58622;BME280;44389;51.578;5.456;2022-12-07T00:06:31;101742.66;;;1.77;100.00
58622;BME280;44389;51.578;5.456;2022-12-07T00:08:56;101737.56;;;1.77;100.00
58622;BME280;44389;51.578;5.456;2022-12-07T00:11:23;101743.69;;;1.69;100.00
58622;BME280;44389;51.578;5.456;2022-12-07T00:13:54;101739.38;;;1.68;100.00
58622;BME280;44389;51.578;5.456;2022-12-07T00:16:21;101735.59;;;1.62;100.00
58622;BME280;44389;51.578;5.456;2022-12-07T00:18:47;101727.09;;;1.62;100.00
58622;BME280;44389;51.578;5.456;2022-12-07T00:21:18;101725.19;;;1.59;100.00
58622;BME280;44389;51.578;5.456;2022-12-07T00:23:45;101726.84;;;1.59;100.00
58622;BME280;44389;51.578;5.456;2022-12-07T00:26:16;101719.72;;;1.55;100.00
58622;BME280;44389;51.578;5.456;2022-12-07T00:28:49;101717.34;;;1.56;100.00
58622;BME280;44389;51.578;5.456;2022-12-07T00:31:17;101715.78;;;1.58;100.00
58622;BME280;44389;51.578;5.456;2022-12-07T00:33:43;101714.16;;;1.59;100.00
58622;BME280;44389;51.578;5.456;2022-12-07T00:36:11;101714.25;;;1.60;100.00
58622;BME280;44389;51.578;5.456;2022-12-07T00:38:37;101706.63;;;1.60;100.00
58622;BME280;44389;51.578;5.456;2022-12-07T00:41:14;101715.78;;;1.58;100.00
58622;BME280;44389;51.578;5.456;2022-12-07T00:43:41;101716.03;;;1.61;100.00
58622;BME280;44389;51.578;5.456;2022-12-07T00:46:07;101716.91;;;1.62;100.00
58622;BME280;44389;51.578;5.456;2022-12-07T00:48:32;101720.09;;;1.59;100.00
58622;BME280;44389;51.578;5.456;2022-12-07T00:50:58;101724.44;;;1.60;100.00
58622;BME280;44389;51.578;5.456;2022-12-07T00:53:24;101715.53;;;1.66;100.00
58622;BME280;44389;51.578;5.456;2022-12-07T00:55:49;101716.03;;;1.61;100.00
58622;BME280;44389;51.578;5.456;2022-12-07T00:58:14;101714.50;;;1.63;100.00
58622;BME280;44389;51.578;5.456;2022-12-07T01:00:41;101712.47;;;1.59;100.00
58622;BME280;44389;51.578;5.456;2022-12-07T01:03:09;101709.94;;;1.59;100.00
58622;BME280;44389;51.578;5.456;2022-12-07T01:05:34;101709.81;;;1.58;100.00
58622;BME280;44389;51.578;5.456;2022-12-07T01:08:00;101712.25;;;1.56;100.00
58622;BME280;44389;51.578;5.456;2022-12-07T01:10:26;101702.84;;;1.55;100.00
58622;BME280;44389;51.578;5.456;2022-12-07T01:12:51;101707.53;;;1.51;100.00
58622;BME280;44389;51.578;5.456;2022-12-07T01:15:16;101710.63;;;1.46;100.00
58622;BME280;44389;51.578;5.456;2022-12-07T01:17:41;101699.56;;;1.46;100.00
58622;BME280;44389;51.578;5.456;2022-12-07T01:20:07;101706.66;;;1.50;100.00
58622;BME280;44389;51.578;5.456;2022-12-07T01:22:37;101709.31;;;1.52;100.00
58622;BME280;44389;51.578;5.456;2022-12-07T01:25:03;101709.72;;;1.56;100.00
58622;BME280;44389;51.578;5.456;2022-12-07T01:27:29;101714.50;;;1.63;100.00
58622;BME280;44389;51.578;5.456;2022-12-07T01:29:54;101718.44;;;1.60;100.00
58622;BME280;44389;51.578;5.456;2022-12-07T01:32:19;101717.16;;;1.65;100.00
58622;BME280;44389;51.578;5.456;2022-12-07T01:34:47;101715.88;;;1.70;100.00
58622;BME280;44389;51.578;5.456;2022-12-07T01:37:13;101713.69;;;1.75;100.00
58622;BME280;44389;51.578;5.456;2022-12-07T01:39:38;101705.53;;;1.79;100.00
58622;BME280;44389;51.578;5.456;2022-12-07T01:42:03;101715.28;;;1.85;100.00
58622;BME280;44389;51.578;5.456;2022-12-07T01:44:29;101709.81;;;1.90;100.00
58622;BME280;44389;51.578;5.456;2022-12-07T01:47:02;101712.59;;;1.93;100.00
58622;BME280;44389;51.578;5.456;2022-12-07T01:49:33;101711.72;;;1.93;100.00
58622;BME280;44389;51.578;5.456;2022-12-07T01:52:28;101714.38;;;1.94;100.00
58622;BME280;44389;51.578;5.456;2022-12-07T01:54:59;101710.97;;;1.94;100.00
58622;BME280;44389;51.578;5.456;2022-12-07T01:57:26;101719.34;;;1.93;100.00
58622;BME280;44389;51.578;5.456;2022-12-07T01:59:51;101709.81;;;1.90;100.00
58622;BME280;44389;51.578;5.456;2022-12-07T02:02:23;101714.41;;;1.84;100.00
58622;BME280;44389;51.578;5.456;2022-12-07T02:04:52;101699.59;;;1.78;100.00
58622;BME280;44389;51.578;5.456;2022-12-07T02:07:19;101709.50;;;1.75;100.00
58622;BME280;44389;51.578;5.456;2022-12-07T02:09:45;101701.78;;;1.63;100.00
58622;BME280;44389;51.578;5.456;2022-12-07T02:12:10;101706.00;;;1.63;100.00
58622;BME280;44389;51.578;5.456;2022-12-07T02:14:35;101709.19;;;1.60;100.00
58622;BME280;44389;51.578;5.456;2022-12-07T02:19:50;101704.75;;;1.58;100.00
58622;BME280;44389;51.578;5.456;2022-12-07T02:28:26;101696.88;;;1.44;100.00
58622;BME280;44389;51.578;5.456;2022-12-07T02:30:55;101700.44;;;1.46;100.00
58622;BME280;44389;51.578;5.456;2022-12-07T02:33:31;101699.56;;;1.46;100.00
58622;BME280;44389;51.578;5.456;2022-12-07T02:36:07;101700.44;;;1.46;100.00
58622;BME280;44389;51.578;5.456;2022-12-07T02:38:47;101695.91;;;1.42;100.00
58622;BME280;44389;51.578;5.456;2022-12-07T02:41:33;101700.44;;;1.46;100.00
58622;BME280;44389;51.578;5.456;2022-12-07T02:44:07;101696.25;;;1.47;100.00
58622;BME280;44389;51.578;5.456;2022-12-07T02:46:40;101697.28;;;1.49;100.00
58622;BME280;44389;51.578;5.456;2022-12-07T02:49:07;101700.94;;;1.53;100.00
58622;BME280;44389;51.578;5.456;2022-12-07T02:51:39;101688.38;;;1.54;100.00
58622;BME280;44389;51.578;5.456;2022-12-07T02:54:11;101693.06;;;1.50;100.00
58622;BME280;44389;51.578;5.456;2022-12-07T03:07:32;101703.63;;;1.44;100.00
58622;BME280;44389;51.578;5.456;2022-12-07T03:10:09;101697.78;;;1.45;100.00
58622;BME280;44389;51.578;5.456;2022-12-07T03:15:23;101696.00;;;1.44;100.00
58622;BME280;44389;51.578;5.456;2022-12-07T03:17:52;101698.44;;;1.42;100.00
58622;BME280;44389;51.578;5.456;2022-12-07T03:20:21;101698.03;;;1.48;100.00
58622;BME280;44389;51.578;5.456;2022-12-07T03:22:49;101697.69;;;1.43;100.00
58622;BME280;44389;51.578;5.456;2022-12-07T03:25:16;101695.78;;;1.41;100.00
58622;BME280;44389;51.578;5.456;2022-12-07T03:27:57;101695.91;;;1.42;100.00
58622;BME280;44389;51.578;5.456;2022-12-07T03:30:39;101697.81;;;1.35;100.00
58622;BME280;44389;51.578;5.456;2022-12-07T03:33:15;101700.34;;;1.35;100.00
58622;BME280;44389;51.578;5.456;2022-12-07T03:35:47;101688.19;;;1.30;100.00
58622;BME280;44389;51.578;5.456;2022-12-07T03:40:54;101697.28;;;1.39;100.00
58622;BME280;44389;51.578;5.456;2022-12-07T03:43:23;101693.69;;;1.47;100.00
58622;BME280;44389;51.578;5.456;2022-12-07T03:51:28;101687.16;;;1.71;100.00
58622;BME280;44389;51.578;5.456;2022-12-07T03:54:02;101673.03;;;1.75;100.00
58622;BME280;44389;51.578;5.456;2022-12-07T03:56:33;101682.44;;;1.76;100.00
58622;BME280;44389;51.578;5.456;2022-12-07T03:59:00;101676.72;;;1.78;100.00
58622;BME280;44389;51.578;5.456;2022-12-07T04:01:25;101683.69;;;1.81;100.00
58622;BME280;44389;51.578;5.456;2022-12-07T04:03:50;101677.06;;;1.83;100.00
58622;BME280;44389;51.578;5.456;2022-12-07T04:06:16;101685.69;;;1.85;100.00
58622;BME280;44389;51.578;5.456;2022-12-07T04:08:41;101690.03;;;1.86;100.00
58622;BME280;44389;51.578;5.456;2022-12-07T04:11:06;101688.34;;;1.87;100.00
58622;BME280;44389;51.578;5.456;2022-12-07T04:13:32;101694.97;;;1.85;100.00
58622;BME280;44389;51.578;5.456;2022-12-07T04:16:17;101688.88;;;1.83;100.00
58622;BME280;44389;51.578;5.456;2022-12-07T04:18:42;101687.00;;;1.80;100.00
58622;BME280;44389;51.578;5.456;2022-12-07T04:21:07;101687.00;;;1.80;100.00
58622;BME280;44389;51.578;5.456;2022-12-07T04:23:33;101689.00;;;1.84;100.00
58622;BME280;44389;51.578;5.456;2022-12-07T04:25:58;101690.78;;;1.85;100.00
58622;BME280;44389;51.578;5.456;2022-12-07T04:28:23;101691.91;;;1.89;100.00
58622;BME280;44389;51.578;5.456;2022-12-07T04:30:48;101691.00;;;1.88;100.00
58622;BME280;44389;51.578;5.456;2022-12-07T04:33:14;101683.50;;;1.90;100.00
58622;BME280;44389;51.578;5.456;2022-12-07T04:35:39;101678.56;;;1.91;100.00
58622;BME280;44389;51.578;5.456;2022-12-07T04:38:04;101682.84;;;1.92;100.00
58622;BME280;44389;51.578;5.456;2022-12-07T04:40:30;101673.59;;;1.93;100.00
58622;BME280;44389;51.578;5.456;2022-12-07T04:42:55;101677.00;;;1.93;100.00
58622;BME280;44389;51.578;5.456;2022-12-07T04:45:20;101674.47;;;1.93;100.00
58622;BME280;44389;51.578;5.456;2022-12-07T04:47:45;101674.34;;;1.92;100.00
58622;BME280;44389;51.578;5.456;2022-12-07T04:50:11;101672.44;;;1.89;100.00
58622;BME280;44389;51.578;5.456;2022-12-07T04:52:36;101673.97;;;1.87;100.00
58622;BME280;44389;51.578;5.456;2022-12-07T04:55:01;101671.22;;;1.84;100.00
58622;BME280;44389;51.578;5.456;2022-12-07T04:57:26;101673.63;;;1.83;100.00
58622;BME280;44389;51.578;5.456;2022-12-07T04:59:52;101667.66;;;1.82;100.00
58622;BME280;44389;51.578;5.456;2022-12-07T05:02:17;101660.81;;;1.81;100.00
58622;BME280;44389;51.578;5.456;2022-12-07T05:04:42;101677.47;;;1.77;100.00
58622;BME280;44389;51.578;5.456;2022-12-07T05:07:08;101670.28;;;1.72;100.00
58622;BME280;44389;51.578;5.456;2022-12-07T05:09:33;101662.66;;;1.72;100.00
58622;BME280;44389;51.578;5.456;2022-12-07T05:11:58;101661.88;;;1.62;100.00
58622;BME280;44389;51.578;5.456;2022-12-07T05:14:23;101660.78;;;1.59;100.00
58622;BME280;44389;51.578;5.456;2022-12-07T05:16:50;101661.56;;;1.58;100.00
58622;BME280;44389;51.578;5.456;2022-12-07T05:19:17;101665.59;;;1.56;100.00
58622;BME280;44389;51.578;5.456;2022-12-07T05:21:42;101660.69;;;1.47;100.00
58622;BME280;44389;51.578;5.456;2022-12-07T05:24:10;101658.13;;;1.47;100.00
58622;BME280;44389;51.578;5.456;2022-12-07T05:26:36;101669.44;;;1.51;100.00
58622;BME280;44389;51.578;5.456;2022-12-07T05:29:02;101667.53;;;1.48;100.00
58622;BME280;44389;51.578;5.456;2022-12-07T05:31:27;101669.31;;;1.49;100.00
58622;BME280;44389;51.578;5.456;2022-12-07T05:33:53;101671.09;;;1.50;100.00
58622;BME280;44389;51.578;5.456;2022-12-07T05:36:18;101664.78;;;1.45;100.00
58622;BME280;44389;51.578;5.456;2022-12-07T05:38:44;101679.63;;;1.40;100.00
58622;BME280;44389;51.578;5.456;2022-12-07T05:41:12;101671.66;;;1.36;100.00
58622;BME280;44389;51.578;5.456;2022-12-07T05:43:59;101672.94;;;1.30;100.00
58622;BME280;44389;51.578;5.456;2022-12-07T05:46:24;101661.28;;;1.12;100.00
58622;BME280;44389;51.578;5.456;2022-12-07T05:48:50;101662.44;;;1.05;100.00
58622;BME280;44389;51.578;5.456;2022-12-07T05:51:15;101658.78;;;1.02;100.00
58622;BME280;44389;51.578;5.456;2022-12-07T05:53:40;101655.59;;;0.94;100.00
58622;BME280;44389;51.578;5.456;2022-12-07T05:56:06;101652.84;;;0.91;100.00
58622;BME280;44389;51.578;5.456;2022-12-07T05:58:31;101655.09;;;0.88;100.00
58622;BME280;44389;51.578;5.456;2022-12-07T06:01:15;101657.66;;;0.77;100.00
58622;BME280;44389;51.578;5.456;2022-12-07T06:03:40;101657.94;;;0.70;100.00
58622;BME280;44389;51.578;5.456;2022-12-07T06:06:06;101655.75;;;0.64;100.00
58622;BME280;44389;51.578;5.456;2022-12-07T06:08:31;101657.28;;;0.62;100.00
58622;BME280;44389;51.578;5.456;2022-12-07T06:10:56;101652.47;;;0.65;100.00
58622;BME280;44389;51.578;5.456;2022-12-07T06:13:40;101657.81;;;0.58;100.00
58622;BME280;44389;51.578;5.456;2022-12-07T06:16:06;101653.84;;;0.62;100.00
58622;BME280;44389;51.578;5.456;2022-12-07T06:18:31;101658.03;;;0.61;100.00
58622;BME280;44389;51.578;5.456;2022-12-07T06:20:56;101661.34;;;0.60;100.00
58622;BME280;44389;51.578;5.456;2022-12-07T06:23:21;101654.75;;;0.62;100.00
58622;BME280;44389;51.578;5.456;2022-12-07T06:25:47;101663.50;;;0.66;100.00
58622;BME280;44389;51.578;5.456;2022-12-07T06:28:12;101660.34;;;0.69;100.00
58622;BME280;44389;51.578;5.456;2022-12-07T06:30:37;101664.63;;;0.70;100.00
58622;BME280;44389;51.578;5.456;2022-12-07T06:33:03;101670.09;;;0.74;100.00
58622;BME280;44389;51.578;5.456;2022-12-07T06:35:28;101664.78;;;0.81;100.00
58622;BME280;44389;51.578;5.456;2022-12-07T06:37:53;101663.09;;;0.92;100.00
58622;BME280;44389;51.578;5.456;2022-12-07T06:40:18;101669.56;;;0.99;100.00
58622;BME280;44389;51.578;5.456;2022-12-07T06:42:44;101659.78;;;1.04;100.00
58622;BME280;44389;51.578;5.456;2022-12-07T06:45:09;101658.88;;;1.13;100.00
58622;BME280;44389;51.578;5.456;2022-12-07T06:47:35;101664.44;;;1.20;100.00
58622;BME280;44389;51.578;5.456;2022-12-07T06:50:00;101653.91;;;1.25;100.00
58622;BME280;44389;51.578;5.456;2022-12-07T06:52:25;101657.31;;;1.26;100.00
58622;BME280;44389;51.578;5.456;2022-12-07T06:54:50;101656.19;;;1.22;100.00
58622;BME280;44389;51.578;5.456;2022-12-07T06:57:16;101663.81;;;1.12;100.00
58622;BME280;44389;51.578;5.456;2022-12-07T06:59:41;101666.38;;;1.12;100.00
58622;BME280;44389;51.578;5.456;2022-12-07T07:02:08;101671.84;;;1.06;100.00
58622;BME280;44389;51.578;5.456;2022-12-07T07:04:33;101670.06;;;1.05;100.00
58622;BME280;44389;51.578;5.456;2022-12-07T07:06:58;101671.97;;;0.97;100.00
58622;BME280;44389;51.578;5.456;2022-12-07T07:09:24;101676.66;;;1.03;100.00
58622;BME280;44389;51.578;5.456;2022-12-07T07:11:49;101674.00;;;1.02;100.00
58622;BME280;44389;51.578;5.456;2022-12-07T07:14:14;101674.00;;;1.02;100.00
58622;BME280;44389;51.578;5.456;2022-12-07T07:16:44;101675.03;;;1.04;100.00
58622;BME280;44389;51.578;5.456;2022-12-07T07:19:09;101674.50;;;1.08;100.00
58622;BME280;44389;51.578;5.456;2022-12-07T07:21:34;101666.78;;;1.06;100.00
58622;BME280;44389;51.578;5.456;2022-12-07T07:23:59;101673.63;;;1.07;100.00
58622;BME280;44389;51.578;5.456;2022-12-07T07:26:25;101675.53;;;1.10;100.00
58622;BME280;44389;51.578;5.456;2022-12-07T07:28:50;101669.81;;;1.12;100.00
58622;BME280;44389;51.578;5.456;2022-12-07T07:31:15;101667.50;;;1.15;100.00
58622;BME280;44389;51.578;5.456;2022-12-07T07:33:41;101668.66;;;1.19;100.00
58622;BME280;44389;51.578;5.456;2022-12-07T07:36:06;101667.09;;;1.21;100.00
58622;BME280;44389;51.578;5.456;2022-12-07T07:38:32;101673.31;;;1.25;100.00
58622;BME280;44389;51.578;5.456;2022-12-07T07:40:57;101673.44;;;1.26;100.00
58622;BME280;44389;51.578;5.456;2022-12-07T07:43:22;101674.56;;;1.30;100.00
58622;BME280;44389;51.578;5.456;2022-12-07T07:45:47;101667.06;;;1.31;100.00
58622;BME280;44389;51.578;5.456;2022-12-07T07:48:13;101669.88;;;1.35;100.00
58622;BME280;44389;51.578;5.456;2022-12-07T07:50:38;101670.88;;;1.37;100.00
58622;BME280;44389;51.578;5.456;2022-12-07T07:53:03;101670.13;;;1.38;100.00
58622;BME280;44389;51.578;5.456;2022-12-07T07:55:28;101672.66;;;1.38;100.00
58622;BME280;44389;51.578;5.456;2022-12-07T07:57:54;101672.53;;;1.36;100.00
58622;BME280;44389;51.578;5.456;2022-12-07T08:00:19;101673.19;;;1.34;100.00
58622;BME280;44389;51.578;5.456;2022-12-07T08:02:45;101675.59;;;1.32;100.00
58622;BME280;44389;51.578;5.456;2022-12-07T08:05:11;101678.41;;;1.25;100.00
58622;BME280;44389;51.578;5.456;2022-12-07T08:07:37;101681.69;;;1.24;100.00
58622;BME280;44389;51.578;5.456;2022-12-07T08:10:02;101681.88;;;1.15;100.00
58622;BME280;44389;51.578;5.456;2022-12-07T08:12:28;101682.63;;;1.14;100.00
58622;BME280;44389;51.578;5.456;2022-12-07T08:14:53;101680.97;;;1.14;100.00
58622;BME280;44389;51.578;5.456;2022-12-07T08:17:18;101686.69;;;1.12;100.00
58622;BME280;44389;51.578;5.456;2022-12-07T08:19:44;101679.34;;;1.15;100.00
58622;BME280;44389;51.578;5.456;2022-12-07T08:22:09;101683.63;;;1.16;100.00
58622;BME280;44389;51.578;5.456;2022-12-07T08:24:35;101696.69;;;1.21;100.00
58622;BME280;44389;51.578;5.456;2022-12-07T08:27:01;101689.69;;;1.28;100.00
58622;BME280;44389;51.578;5.456;2022-12-07T08:29:26;101692.97;;;1.38;100.00
58622;BME280;44389;51.578;5.456;2022-12-07T08:31:52;101694.50;;;1.46;100.00
58622;BME280;44389;51.578;5.456;2022-12-07T08:34:17;101695.22;;;1.55;100.00
58622;BME280;44389;51.578;5.456;2022-12-07T08:36:42;101698.38;;;1.63;100.00
58622;BME280;44389;51.578;5.456;2022-12-07T08:39:08;101693.00;;;1.70;100.00
58622;BME280;44389;51.578;5.456;2022-12-07T08:41:33;101701.09;;;1.76;100.00
58622;BME280;44389;51.578;5.456;2022-12-07T08:43:59;101702.72;;;1.86;100.00
58622;BME280;44389;51.578;5.456;2022-12-07T08:46:29;101698.53;;;1.87;100.00
58622;BME280;44389;51.578;5.456;2022-12-07T08:49:14;101703.97;;;1.91;100.00
58622;BME280;44389;51.578;5.456;2022-12-07T08:51:41;101700.78;;;1.94;100.00
58622;BME280;44389;51.578;5.456;2022-12-07T08:54:11;101692.50;;;1.96;100.00
58622;BME280;44389;51.578;5.456;2022-12-07T08:56:38;101686.00;;;2.00;100.00
58622;BME280;44389;51.578;5.456;2022-12-07T08:59:04;101688.69;;;2.02;100.00
58622;BME280;44389;51.578;5.456;2022-12-07T09:01:30;101691.97;;;2.01;100.00
58622;BME280;44389;51.578;5.456;2022-12-07T09:03:55;101685.13;;;2.00;100.00
58622;BME280;44389;51.578;5.456;2022-12-07T09:06:21;101691.97;;;2.01;100.00
58622;BME280;44389;51.578;5.456;2022-12-07T09:08:48;101688.69;;;2.02;100.00
58622;BME280;44389;51.578;5.456;2022-12-07T09:11:14;101683.81;;;2.05;100.00
58622;BME280;44389;51.578;5.456;2022-12-07T09:13:40;101690.91;;;2.09;100.00
58622;BME280;44389;51.578;5.456;2022-12-07T09:16:05;101685.16;;;2.11;100.00
58622;BME280;44389;51.578;5.456;2022-12-07T09:18:30;101687.81;;;2.13;100.00
58622;BME280;44389;51.578;5.456;2022-12-07T09:20:56;101690.38;;;2.13;100.00
58622;BME280;44389;51.578;5.456;2022-12-07T09:23:22;101685.81;;;2.09;100.00
58622;BME280;44389;51.578;5.456;2022-12-07T09:25:47;101691.66;;;2.08;100.00
58622;BME280;44389;51.578;5.456;2022-12-07T09:28:12;101687.13;;;2.04;100.00
58622;BME280;44389;51.578;5.456;2022-12-07T09:30:37;101685.13;;;2.00;100.00
58622;BME280;44389;51.578;5.456;2022-12-07T09:33:03;101689.31;;;1.99;100.00
58622;BME280;44389;51.578;5.456;2022-12-07T09:35:28;101691.72;;;1.97;100.00
58622;BME280;44389;51.578;5.456;2022-12-07T09:37:53;101690.72;;;1.95;100.00
58622;BME280;44389;51.578;5.456;2022-12-07T09:40:20;101693.50;;;1.98;100.00
58622;BME280;44389;51.578;5.456;2022-12-07T09:42:50;101698.69;;;2.00;100.00
58622;BME280;44389;51.578;5.456;2022-12-07T09:45:35;101694.22;;;2.08;100.00
58622;BME280;44389;51.578;5.456;2022-12-07T09:48:05;101689.88;;;2.17;100.00
58622;BME280;44389;51.578;5.456;2022-12-07T09:50:31;101685.69;;;2.29;100.00
58622;BME280;44389;51.578;5.456;2022-12-07T09:53:09;101692.44;;;2.51;100.00
58622;BME280;44389;51.578;5.456;2022-12-07T09:55:38;101690.03;;;2.64;100.00
58622;BME280;44389;51.578;5.456;2022-12-07T09:58:03;101686.31;;;2.83;100.00
58622;BME280;44389;51.578;5.456;2022-12-07T10:00:29;101680.59;;;2.97;100.00
58622;BME280;44389;51.578;5.456;2022-12-07T10:02:55;101685.69;;;3.21;100.00
58622;BME280;44389;51.578;5.456;2022-12-07T10:05:34;101690.03;;;3.46;100.00
58622;BME280;44389;51.578;5.456;2022-12-07T10:08:01;101680.78;;;3.72;100.00
58622;BME280;44389;51.578;5.456;2022-12-07T10:10:30;101673.09;;;3.95;100.00
58622;BME280;44389;51.578;5.456;2022-12-07T10:12:59;101677.44;;;3.97;100.00
58622;BME280;44389;51.578;5.456;2022-12-07T10:18:28;101666.38;;;4.21;100.00
58622;BME280;44389;51.578;5.456;2022-12-07T10:21:02;101670.91;;;4.25;100.00
58622;BME280;44389;51.578;5.456;2022-12-07T10:23:28;101664.50;;;4.19;100.00
58622;BME280;44389;51.578;5.456;2022-12-07T10:25:53;101665.47;;;4.21;100.00
58622;BME280;44389;51.578;5.456;2022-12-07T10:28:20;101663.28;;;4.14;100.00
58622;BME280;44389;51.578;5.456;2022-12-07T10:30:50;101658.81;;;4.23;100.00
58622;BME280;44389;51.578;5.456;2022-12-07T10:33:34;101662.75;;;4.31;100.00
58622;BME280;44389;51.578;5.456;2022-12-07T10:36:01;101662.91;;;4.33;100.00
58622;BME280;44389;51.578;5.456;2022-12-07T10:41:28;101655.13;;;4.70;100.00
58622;BME280;44389;51.578;5.456;2022-12-07T10:43:56;101641.81;;;5.01;100.00
58622;BME280;44389;51.578;5.456;2022-12-07T10:46:43;101653.06;;;5.30;100.00
58622;BME280;44389;51.578;5.456;2022-12-07T11:00:01;101638.28;;;5.12;100.00
58622;BME280;44389;51.578;5.456;2022-12-07T11:02:50;101635.06;;;5.15;100.00
58622;BME280;44389;51.578;5.456;2022-12-07T11:08:09;101632.59;;;5.03;100.00
58622;BME280;44389;51.578;5.456;2022-12-07T11:10:50;101624.56;;;5.10;100.00
58622;BME280;44389;51.578;5.456;2022-12-07T11:19:06;101618.63;;;5.38;100.00
58622;BME280;44389;51.578;5.456;2022-12-07T11:21:56;101617.38;;;5.31;100.00
58622;BME280;44389;51.578;5.456;2022-12-07T11:24:50;101620.81;;;5.18;100.00
58622;BME280;44389;51.578;5.456;2022-12-07T11:27:26;101617.59;;;5.07;100.00
58622;BME280;44389;51.578;5.456;2022-12-07T11:30:29;101607.16;;;5.04;100.00
58622;BME280;44389;51.578;5.456;2022-12-07T11:33:22;101616.00;;;5.23;100.00
58622;BME280;44389;51.578;5.456;2022-12-07T11:38:46;101603.09;;;5.21;100.00
58622;BME280;44389;51.578;5.456;2022-12-07T11:41:13;101598.19;;;5.11;100.00
58622;BME280;44389;51.578;5.456;2022-12-07T11:44:00;101604.00;;;5.08;100.00
58622;BME280;44389;51.578;5.456;2022-12-07T11:49:17;101590.66;;;4.86;100.00
58622;BME280;44389;51.578;5.456;2022-12-07T11:51:49;101585.81;;;4.77;100.00
58622;BME280;44389;51.578;5.456;2022-12-07T11:54:28;101584.72;;;4.73;100.00
58622;BME280;44389;51.578;5.456;2022-12-07T11:56:56;101590.00;;;4.63;100.00
58622;BME280;44389;51.578;5.456;2022-12-07T11:59:36;101582.25;;;4.61;100.00
58622;BME280;44389;51.578;5.456;2022-12-07T12:02:13;101581.56;;;4.64;100.00
58622;BME280;44389;51.578;5.456;2022-12-07T12:07:15;101580.91;;;4.80;100.00
58622;BME280;44389;51.578;5.456;2022-12-07T12:09:59;101562.63;;;5.01;100.00
58622;BME280;44389;51.578;5.456;2022-12-07T12:15:27;101564.22;;;5.54;100.00
58622;BME280;44389;51.578;5.456;2022-12-07T12:20:51;101556.06;;;5.46;100.00
58622;BME280;44389;51.578;5.456;2022-12-07T12:23:29;101555.31;;;5.34;100.00
58622;BME280;44389;51.578;5.456;2022-12-07T12:26:02;101553.06;;;5.25;100.00
58622;BME280;44389;51.578;5.456;2022-12-07T12:28:33;101552.13;;;5.23;100.00
58622;BME280;44389;51.578;5.456;2022-12-07T12:33:56;101552.19;;;5.11;100.00
58622;BME280;44389;51.578;5.456;2022-12-07T12:44:02;101551.03;;;4.92;100.00
58622;BME280;44389;51.578;5.456;2022-12-07T12:46:36;101543.34;;;5.06;100.00
58622;BME280;44389;51.578;5.456;2022-12-07T12:51:52;101536.22;;;5.42;100.00
58622;BME280;44389;51.578;5.456;2022-12-07T12:56:51;101535.16;;;5.67;100.00
58622;BME280;44389;51.578;5.456;2022-12-07T13:15:50;101516.41;;;6.24;97.07
58622;BME280;44389;51.578;5.456;2022-12-07T13:23:57;101504.81;;;5.86;98.90
58622;BME280;44389;51.578;5.456;2022-12-07T13:29:16;101513.06;;;5.82;99.74
58622;BME280;44389;51.578;5.456;2022-12-07T13:31:44;101496.53;;;5.62;98.84
58622;BME280;44389;51.578;5.456;2022-12-07T13:34:33;101495.41;;;5.72;100.00
58622;BME280;44389;51.578;5.456;2022-12-07T13:39:51;101491.41;;;5.62;100.00
58622;BME280;44389;51.578;5.456;2022-12-07T13:42:28;101494.47;;;5.56;100.00
58622;BME280;44389;51.578;5.456;2022-12-07T13:44:54;101487.09;;;5.61;100.00
58622;BME280;44389;51.578;5.456;2022-12-07T13:49:56;101480.44;;;5.50;100.00
58622;BME280;44389;51.578;5.456;2022-12-07T13:52:24;101473.91;;;5.40;100.00
58622;BME280;44389;51.578;5.456;2022-12-07T13:57:31;101461.59;;;5.19;100.00
58622;BME280;44389;51.578;5.456;2022-12-07T14:00:04;101461.81;;;5.09;100.00
58622;BME280;44389;51.578;5.456;2022-12-07T14:02:32;101458.56;;;4.98;100.00
58622;BME280;44389;51.578;5.456;2022-12-07T14:07:33;101453.69;;;4.88;100.00
58622;BME280;44389;51.578;5.456;2022-12-07T14:10:01;101458.69;;;4.86;100.00
58622;BME280;44389;51.578;5.456;2022-12-07T14:12:28;101456.75;;;4.82;100.00
58622;BME280;44389;51.578;5.456;2022-12-07T14:14:55;101454.09;;;4.81;100.00
58622;BME280;44389;51.578;5.456;2022-12-07T14:17:23;101450.56;;;4.78;100.00
58622;BME280;44389;51.578;5.456;2022-12-07T14:22:24;101453.31;;;4.68;100.00
58622;BME280;44389;51.578;5.456;2022-12-07T14:24:49;101458.53;;;4.56;100.00
58622;BME280;44389;51.578;5.456;2022-12-07T14:27:23;101456.09;;;4.44;100.00
58622;BME280;44389;51.578;5.456;2022-12-07T14:29:55;101457.44;;;4.26;100.00
58622;BME280;44389;51.578;5.456;2022-12-07T14:32:29;101453.31;;;4.15;100.00
58622;BME280;44389;51.578;5.456;2022-12-07T14:37:24;101448.78;;;3.97;100.00
58622;BME280;44389;51.578;5.456;2022-12-07T14:39:49;101442.56;;;3.93;100.00
58622;BME280;44389;51.578;5.456;2022-12-07T14:42:15;101441.72;;;3.93;100.00
58622;BME280;44389;51.578;5.456;2022-12-07T14:44:40;101444.16;;;3.91;100.00
58622;BME280;44389;51.578;5.456;2022-12-07T14:47:09;101441.78;;;3.81;100.00
58622;BME280;44389;51.578;5.456;2022-12-07T14:49:35;101439.31;;;3.83;100.00
58622;BME280;44389;51.578;5.456;2022-12-07T14:52:00;101445.69;;;3.76;100.00
58622;BME280;44389;51.578;5.456;2022-12-07T14:54:27;101445.44;;;3.59;100.00
58622;BME280;44389;51.578;5.456;2022-12-07T14:56:55;101441.69;;;3.54;100.00
58622;BME280;44389;51.578;5.456;2022-12-07T14:59:21;101446.59;;;3.51;100.00
58622;BME280;44389;51.578;5.456;2022-12-07T15:01:46;101441.84;;;3.44;100.00
58622;BME280;44389;51.578;5.456;2022-12-07T15:04:11;101433.53;;;3.46;100.00